Fairbanks, AK

4:10 AM AKDT on May 22, 2015 (GMT -0800)
AKDOT | | Change Station
CLOSE
Current Station
Personal Weather Station
Location: Fairbanks, AK
Elevation: 482 ft
Nearby Weather Stations
Active Advisory: Fire Weather Warning Active Notice: Record Report

Elev 482 ft 64.84 °N, 147.71 °W | Updated 47 minutes ago

Clear
Clear
50 °F
Feels Like 50 °F
N
0
Wind Variable Wind from West
Gusts 2.0 mph

Today
High -- | Low -- °F
--% Chance of Precip.
Yesterday
High -- | Low -- °F
Precip. -- in
4:04 AM 11:33 PM
Waxing Crescent, 21% visible
Pressure 30.14 in
Visibility 10.0 miles
Clouds Clear
Dew Point 42 °F
Humidity 74%
Rainfall in
Snow Depth Not available.
UV 0 out of 12
Pollen Not available.
Air Quality Not available.
Flu Activity Sporadic
METAR PAFB 221156Z AUTO 12003KT 10SM CLR 09/03 A3014 RMK SLP207 T00890033 10194 20083 51016 $ VIA AUTODIAL

More Conditions Fewer Conditions

Pressure 30.14 in
Visibility 10.0 miles
Clouds Clear
Dew Point 42 °F
Humidity 74%
Rainfall in
Snow Depth Not available.
UV 0 out of 12
Pollen Not available.
Air Quality Not available.
Flu Activity Sporadic
METAR PAFB 221156Z AUTO 12003KT 10SM CLR 09/03 A3014 RMK SLP207 T00890033 10194 20083 51016 $ VIA AUTODIAL

More Conditions Fewer Conditions

10-Day Weather Forecast

Almanac

Astronomy

May. 22, 2015 Rise Set
Actual Time
Civil Twilight
Nautical Twilight
Astronomical Twilight
Moon
Length of Visible Light
Length of Day
Tomorrow will be .
, % of the Moon is Illuminated

Today's Extremes

State Highs State Lows

Community

WunderPhotos

Upload Photos

1,823,206 photos uploaded!

WunderBlogs® & News

Nearby

Air Quality

  Air Quality AQ Index Pollutant
Not available.

Snow Depth

Station Depth Elevation

Earthquake Activity

City Distance Mag. Time & Date
Minimum magnitude displayed is 2.5.

Coastal Water Temperatures

Place Temperature

Stations

Nearby Weather Stations

Station Location Temp. Windchill Dew Point Humidity Wind Precip. Elev Updated Type
                   
Fire Weather Warning
Statement as of 2:07 PM AKDT on May 21, 2015

... Red flag warning remains in effect until 10 PM akdt Friday for
low humidity for fire weather zone 222...

* humidity... as low as 13 percent.

* Timing... relative humidity will recover above 15 percent by
10 PM akdt tonight. Relative humidity will fall below 15
percent again Friday after 2 PM akdt.

* Impacts... any fires that develop will likely spread rapidly.
Outdoor burning is not recommended.

Precautionary/preparedness actions...

A red flag warning means that conditions are occurring or will
occur which could lead to the development of large and dangerous
fires. It is directed toward fire agencies... and through them...
to the public.

Please advise the appropriate officials or fire crews in the
field of this red flag warning.